| time (UTC) | temp F | wind direction | speed MPH | gust MPH | rain 1hr in | rain 24hr in | rain mn in | humidity % | barometer mb |
| 20260831114558 | 54 | 290 | 8.0 | 12.0 | 0.00 | 0.01 | 0.00 | 57 | 1014.7 |
| 20260831113102 | 55 | 288 | 9.0 | 15.0 | 0.00 | 0.01 | 0.00 | 56 | 1014.8 |
| 20260831111545 | 55 | 270 | 9.0 | 15.0 | 0.00 | 0.01 | 0.00 | 56 | 1014.7 |
| 20260831110045 | 55 | 304 | 10.0 | 17.0 | 0.00 | 0.01 | 0.00 | 55 | 1014.6 |
| 20260831104558 | 55 | 294 | 9.0 | 17.0 | 0.00 | 0.01 | 0.00 | 56 | 1014.4 |
| 20260831103052 | 54 | 304 | 10.0 | 17.0 | 0.00 | 0.01 | 0.00 | 58 | 1014.1 |
| 20260831101548 | 55 | 284 | 14.0 | 21.0 | 0.00 | 0.01 | 0.00 | 58 | 1013.8 |
| 20260831100047 | 55 | 279 | 14.0 | 20.0 | 0.00 | 0.01 | 0.00 | 58 | 1013.7 |
| 20260831094559 | 55 | 269 | 13.0 | 25.0 | 0.00 | 0.01 | 0.00 | 58 | 1013.7 |
| 20260831093133 | 55 | 288 | 12.0 | 20.0 | 0.00 | 0.01 | 0.00 | 58 | 1013.6 |
| 20260831091550 | 55 | 274 | 14.0 | 25.0 | 0.00 | 0.01 | 0.00 | 57 | 1013.4 |
| 20260831090052 | 55 | 275 | 15.0 | 26.0 | 0.00 | 0.01 | 0.00 | 57 | 1013.4 |
| 20260831084628 | 55 | 287 | 16.0 | 25.0 | 0.00 | 0.01 | 0.00 | 57 | 1013.3 |
| 20260831083105 | 55 | 286 | 15.0 | 26.0 | 0.00 | 0.01 | 0.00 | 57 | 1012.9 |
| 20260831081547 | 55 | 278 | 16.0 | 26.0 | 0.00 | 0.01 | 0.00 | 57 | 1013.0 |
| 20260831080109 | 55 | 299 | 15.0 | 26.0 | 0.00 | 0.01 | 0.00 | 57 | 1012.9 |
| 20260831074556 | 55 | 281 | 16.0 | 26.0 | 0.00 | 0.01 | 0.00 | 57 | 1012.9 |
| 20260831073050 | 55 | 289 | 16.0 | 28.0 | 0.00 | 0.01 | 0.00 | 57 | 1012.8 |
| 20260831071551 | 55 | 284 | 18.0 | 28.0 | 0.00 | 0.01 | 0.00 | 57 | 1012.5 |
| 20260831070046 | 55 | 281 | 16.0 | 28.0 | 0.00 | 0.01 | 0.00 | 56 | 1012.5 |
| 20260831064559 | 55 | 288 | 17.0 | 26.0 | 0.00 | 0.01 | 0.00 | 56 | 1012.5 |
| 20260831063103 | 54 | 285 | 15.0 | 22.0 | 0.00 | 0.01 | 0.00 | 58 | 1012.7 |
| 20260831061550 | 53 | 275 | 12.0 | 19.0 | 0.00 | 0.01 | 0.00 | 60 | 1012.8 |
| 20260831060054 | 53 | 279 | 10.0 | 14.0 | 0.00 | 0.01 | 0.00 | 61 | 1013.3 |
| 20260831054548 | 53 | 277 | 8.0 | 16.0 | 0.00 | 0.01 | 0.01 | 60 | 1013.3 |
| 20260831053102 | 53 | 276 | 9.0 | 16.0 | 0.00 | 0.01 | 0.01 | 61 | 1013.3 |
| 20260831051554 | 52 | 286 | 7.0 | 11.0 | 0.00 | 0.01 | 0.01 | 62 | 1013.3 |
| 20260831050118 | 52 | 263 | 9.0 | 15.0 | 0.00 | 0.01 | 0.01 | 62 | 1013.3 |
| 20260831044558 | 53 | 283 | 10.0 | 17.0 | 0.00 | 0.01 | 0.01 | 61 | 1013.1 |
| 20260831043052 | 54 | 275 | 10.0 | 16.0 | 0.00 | 0.01 | 0.01 | 60 | 1012.9 |
| 20260831041552 | 53 | 273 | 11.0 | 16.0 | 0.00 | 0.01 | 0.01 | 61 | 1012.9 |
| 20260831040053 | 52 | 284 | 8.0 | 16.0 | 0.00 | 0.01 | 0.01 | 63 | 1012.8 |
| 20260831034554 | 53 | 278 | 11.0 | 17.0 | 0.00 | 0.01 | 0.01 | 63 | 1012.8 |
| 20260831033101 | 54 | 278 | 11.0 | 19.0 | 0.00 | 0.01 | 0.01 | 62 | 1013.3 |
| 20260831031555 | 54 | 313 | 10.0 | 14.0 | 0.00 | 0.01 | 0.01 | 63 | 1013.7 |
| 20260831030054 | 55 | 333 | 10.0 | 15.0 | 0.00 | 0.01 | 0.01 | 60 | 1013.5 |
| 20260831024554 | 56 | 283 | 9.0 | 16.0 | 0.00 | 0.01 | 0.01 | 57 | 1012.8 |
| 20260831023056 | 55 | 297 | 3.0 | 9.0 | 0.00 | 0.01 | 0.01 | 60 | 1012.5 |
| 20260831021553 | 55 | 313 | 4.0 | 11.0 | 0.00 | 0.01 | 0.01 | 60 | 1012.4 |
| 20260831020052 | 55 | 325 | 9.0 | 15.0 | 0.00 | 0.01 | 0.01 | 60 | 1012.4 |
| 20260831014550 | 56 | 327 | 8.0 | 20.0 | 0.00 | 0.01 | 0.01 | 59 | 1012.2 |
| 20260831013049 | 60 | 307 | 16.0 | 29.0 | 0.00 | 0.01 | 0.01 | 47 | 1011.9 |
| 20260831011552 | 60 | 275 | 19.0 | 30.0 | 0.00 | 0.01 | 0.01 | 47 | 1011.6 |
| 20260831004545 | 62 | 268 | 16.0 | 30.0 | 0.00 | 0.01 | 0.01 | 47 | 1011.6 |
| 20260831003051 | 62 | 258 | 16.0 | 29.0 | 0.00 | 0.01 | 0.01 | 46 | 1011.5 |
| 20260831001548 | 61 | 267 | 18.0 | 27.0 | 0.00 | 0.01 | 0.01 | 48 | 1011.5 |
| 20260831000048 | 59 | 265 | 19.0 | 25.0 | 0.01 | 0.01 | 0.01 | 52 | 1011.6 |
| 20260830234551 | 57 | 282 | 14.0 | 21.0 | 0.01 | 0.04 | 0.01 | 60 | 1011.6 |
| 20260830233100 | 56 | 316 | 8.0 | 13.0 | 0.01 | 0.04 | 0.01 | 64 | 1011.6 |
| 20260830231547 | 55 | 292 | 10.0 | 23.0 | 0.01 | 0.04 | 0.01 | 67 | 1011.9 |
| 20260830230053 | 55 | 279 | 8.0 | 16.0 | 0.00 | 0.03 | 0.00 | 63 | 1011.8 |
| 20260830224549 | 56 | 248 | 14.0 | 26.0 | 0.00 | 0.09 | 0.00 | 62 | 1011.8 |
| 20260830223045 | 59 | 260 | 18.0 | 29.0 | 0.00 | 0.09 | 0.00 | 51 | 1011.7 |
| 20260830221554 | 62 | 268 | 17.0 | 27.0 | 0.00 | 0.09 | 0.00 | 46 | 1011.6 |
| 20260830220106 | 61 | 250 | 17.0 | 25.0 | 0.00 | 0.09 | 0.00 | 46 | 1011.3 |
| 20260830214554 | 62 | 241 | 16.0 | 27.0 | 0.00 | 0.09 | 0.00 | 46 | 1011.4 |
| 20260830213051 | 61 | 279 | 15.0 | 24.0 | 0.00 | 0.09 | 0.00 | 46 | 1011.4 |
| 20260830211553 | 62 | 246 | 15.0 | 25.0 | 0.00 | 0.09 | 0.00 | 45 | 1011.6 |
| 20260830210049 | 63 | 287 | 16.0 | 30.0 | 0.00 | 0.09 | 0.00 | 42 | 1011.5 |
| 20260830204557 | 63 | 251 | 15.0 | 25.0 | 0.00 | 0.09 | 0.00 | 44 | 1011.6 |
| 20260830203048 | 63 | 275 | 15.0 | 27.0 | 0.00 | 0.09 | 0.00 | 44 | 1011.6 |
| 20260830201547 | 62 | 265 | 17.0 | 28.0 | 0.00 | 0.09 | 0.00 | 45 | 1011.7 |
| 20260830200044 | 63 | 244 | 16.0 | 26.0 | 0.00 | 0.09 | 0.00 | 44 | 1011.9 |
| 20260830194602 | 61 | 289 | 16.0 | 27.0 | 0.00 | 0.09 | 0.00 | 46 | 1011.8 |
| 20260830193046 | 60 | 281 | 15.0 | 24.0 | 0.00 | 0.09 | 0.00 | 46 | 1012.0 |
| 20260830191547 | 60 | 278 | 12.0 | 25.0 | 0.00 | 0.09 | 0.00 | 48 | 1012.0 |
| 20260830190052 | 61 | 262 | 17.0 | 28.0 | 0.00 | 0.09 | 0.00 | 48 | 1012.0 |
| 20260830184550 | 60 | 259 | 17.0 | 25.0 | 0.00 | 0.09 | 0.00 | 47 | 1011.8 |
| 20260830183051 | 61 | 263 | 16.0 | 25.0 | 0.00 | 0.09 | 0.00 | 45 | 1011.8 |
| 20260830181548 | 62 | 260 | 14.0 | 24.0 | 0.00 | 0.09 | 0.00 | 42 | 1011.7 |
| 20260830180050 | 63 | 244 | 16.0 | 26.0 | 0.00 | 0.09 | 0.00 | 42 | 1011.7 |
| 20260830174543 | 62 | 244 | 16.0 | 25.0 | 0.00 | 0.09 | 0.00 | 45 | 1011.7 |
| 20260830173052 | 62 | 261 | 14.0 | 25.0 | 0.00 | 0.09 | 0.00 | 45 | 1011.8 |
| 20260830171557 | 61 | 255 | 15.0 | 25.0 | 0.00 | 0.09 | 0.00 | 45 | 1011.8 |
| 20260830170050 | 60 | 243 | 16.0 | 25.0 | 0.00 | 0.09 | 0.00 | 47 | 1011.8 |
| 20260830164549 | 62 | 227 | 16.0 | 26.0 | 0.00 | 0.09 | 0.00 | 46 | 1012.0 |
| 20260830163058 | 61 | 232 | 16.0 | 24.0 | 0.00 | 0.09 | 0.00 | 46 | 1012.2 |
| 20260830161547 | 60 | 263 | 18.0 | 26.0 | 0.00 | 0.09 | 0.00 | 47 | 1012.1 |
| 20260830160057 | 59 | 220 | 16.0 | 23.0 | 0.00 | 0.09 | 0.00 | 47 | 1011.9 |
| 20260830154551 | 60 | 234 | 15.0 | 21.0 | 0.00 | 0.09 | 0.00 | 45 | 1012.0 |
| 20260830153051 | 58 | 214 | 11.0 | 20.0 | 0.00 | 0.09 | 0.00 | 48 | 1012.0 |
| 20260830151550 | 57 | 230 | 10.0 | 17.0 | 0.00 | 0.09 | 0.00 | 50 | 1012.1 |
| 20260830150045 | 57 | 236 | 11.0 | 16.0 | 0.00 | 0.09 | 0.00 | 50 | 1012.1 |
| 20260830144604 | 56 | 235 | 8.0 | 13.0 | 0.00 | 0.09 | 0.00 | 52 | 1012.3 |
| 20260830143052 | 55 | 221 | 4.0 | 6.0 | 0.00 | 0.09 | 0.00 | 55 | 1012.4 |
| 20260830141545 | 54 | 236 | 5.0 | 13.0 | 0.00 | 0.09 | 0.00 | 56 | 1012.5 |
| 20260830140055 | 53 | 244 | 8.0 | 13.0 | 0.00 | 0.09 | 0.00 | 56 | 1012.5 |
| 20260830134602 | 51 | 245 | 8.0 | 13.0 | 0.00 | 0.10 | 0.00 | 58 | 1012.5 |
| 20260830133046 | 51 | 239 | 8.0 | 11.0 | 0.00 | 0.10 | 0.00 | 58 | 1012.5 |
| 20260830131557 | 50 | 248 | 5.0 | 9.0 | 0.00 | 0.10 | 0.00 | 58 | 1012.3 |
| 20260830130106 | 51 | 262 | 3.0 | 8.0 | 0.00 | 0.10 | 0.00 | 55 | 1012.4 |
| 20260830124549 | 51 | 267 | 5.0 | 9.0 | 0.00 | 0.10 | 0.00 | 54 | 1012.4 |
| 20260830123054 | 51 | 296 | 3.0 | 7.0 | 0.00 | 0.10 | 0.00 | 56 | 1012.5 |
| 20260830121558 | 52 | 301 | 4.0 | 11.0 | 0.00 | 0.10 | 0.00 | 55 | 1012.5 |
| 20260830120059 | 53 | 261 | 7.0 | 11.0 | 0.00 | 0.10 | 0.00 | 52 | 1012.5 |